sensor_id;sensor_type;location;lat;lon;timestamp;pressure;altitude;pressure_sealevel;temperature;humidity
41596;BME280;27283;52.504;13.358;2023-06-10T00:01:37;101236.84;;;15.45;88.52
41596;BME280;27283;52.504;13.358;2023-06-10T00:04:12;101236.56;;;15.40;88.74
41596;BME280;27283;52.504;13.358;2023-06-10T00:06:45;101241.22;;;15.31;89.80
41596;BME280;27283;52.504;13.358;2023-06-10T00:09:18;101242.72;;;15.34;89.29
41596;BME280;27283;52.504;13.358;2023-06-10T00:11:51;101239.56;;;15.45;89.01
41596;BME280;27283;52.504;13.358;2023-06-10T00:14:23;101236.81;;;15.30;89.71
41596;BME280;27283;52.504;13.358;2023-06-10T00:16:55;101244.03;;;15.38;89.53
41596;BME280;27283;52.504;13.358;2023-06-10T00:19:31;101231.53;;;15.37;89.11
41596;BME280;27283;52.504;13.358;2023-06-10T00:22:04;101241.03;;;15.33;89.38
41596;BME280;27283;52.504;13.358;2023-06-10T00:24:37;101229.34;;;15.32;89.60
41596;BME280;27283;52.504;13.358;2023-06-10T00:27:10;101227.38;;;15.26;90.54
41596;BME280;27283;52.504;13.358;2023-06-10T00:29:43;101231.25;;;15.47;88.88
41596;BME280;27283;52.504;13.358;2023-06-10T00:32:15;101223.47;;;15.29;90.35
41596;BME280;27283;52.504;13.358;2023-06-10T00:34:50;101222.81;;;15.12;91.27
41596;BME280;27283;52.504;13.358;2023-06-10T00:37:22;101226.91;;;15.22;90.50
41596;BME280;27283;52.504;13.358;2023-06-10T00:39:54;101230.94;;;15.27;90.19
41596;BME280;27283;52.504;13.358;2023-06-10T00:42:26;101231.50;;;15.22;90.46
41596;BME280;27283;52.504;13.358;2023-06-10T00:44:59;101231.13;;;15.10;91.80
41596;BME280;27283;52.504;13.358;2023-06-10T00:47:31;101232.72;;;15.19;90.71
41596;BME280;27283;52.504;13.358;2023-06-10T00:50:08;101231.75;;;15.12;91.33
41596;BME280;27283;52.504;13.358;2023-06-10T00:52:42;101234.63;;;14.96;92.45
41596;BME280;27283;52.504;13.358;2023-06-10T00:55:17;101237.13;;;14.97;92.74
41596;BME280;27283;52.504;13.358;2023-06-10T00:57:50;101232.47;;;14.91;93.03
41596;BME280;27283;52.504;13.358;2023-06-10T01:00:23;101237.97;;;14.83;93.41
41596;BME280;27283;52.504;13.358;2023-06-10T01:02:55;101233.19;;;14.85;93.73
41596;BME280;27283;52.504;13.358;2023-06-10T01:05:31;101237.34;;;14.73;94.38
41596;BME280;27283;52.504;13.358;2023-06-10T01:08:09;101233.28;;;14.77;94.11
41596;BME280;27283;52.504;13.358;2023-06-10T01:10:51;101235.28;;;14.98;92.99
41596;BME280;27283;52.504;13.358;2023-06-10T01:13:26;101249.25;;;14.86;93.22
41596;BME280;27283;52.504;13.358;2023-06-10T01:16:01;101237.28;;;14.81;93.65
41596;BME280;27283;52.504;13.358;2023-06-10T01:18:33;101232.97;;;14.71;93.90
41596;BME280;27283;52.504;13.358;2023-06-10T01:21:33;101241.41;;;14.77;93.89
41596;BME280;27283;52.504;13.358;2023-06-10T01:24:05;101241.81;;;14.65;94.57
41596;BME280;27283;52.504;13.358;2023-06-10T01:26:41;101243.69;;;14.65;95.03
41596;BME280;27283;52.504;13.358;2023-06-10T01:29:18;101242.34;;;14.61;95.15
41596;BME280;27283;52.504;13.358;2023-06-10T01:31:54;101254.69;;;14.63;94.98
41596;BME280;27283;52.504;13.358;2023-06-10T01:34:32;101249.94;;;14.65;94.47
41596;BME280;27283;52.504;13.358;2023-06-10T01:37:09;101252.22;;;14.77;94.17
41596;BME280;27283;52.504;13.358;2023-06-10T01:39:46;101252.44;;;14.67;94.40
41596;BME280;27283;52.504;13.358;2023-06-10T01:42:20;101253.97;;;14.69;94.73
41596;BME280;27283;52.504;13.358;2023-06-10T01:44:53;101243.00;;;14.63;94.44
41596;BME280;27283;52.504;13.358;2023-06-10T01:47:25;101252.16;;;14.53;95.05
41596;BME280;27283;52.504;13.358;2023-06-10T01:49:58;101248.75;;;14.36;96.53
41596;BME280;27283;52.504;13.358;2023-06-10T01:52:33;101251.81;;;14.33;96.91
41596;BME280;27283;52.504;13.358;2023-06-10T01:55:06;101252.44;;;14.35;97.43
41596;BME280;27283;52.504;13.358;2023-06-10T01:57:39;101255.84;;;14.38;96.96
41596;BME280;27283;52.504;13.358;2023-06-10T02:00:13;101244.69;;;14.32;97.46
41596;BME280;27283;52.504;13.358;2023-06-10T02:02:46;101245.75;;;14.31;97.64
41596;BME280;27283;52.504;13.358;2023-06-10T02:05:18;101250.78;;;14.34;97.54
41596;BME280;27283;52.504;13.358;2023-06-10T02:07:53;101249.56;;;14.37;97.25
41596;BME280;27283;52.504;13.358;2023-06-10T02:10:25;101248.38;;;14.40;97.27
41596;BME280;27283;52.504;13.358;2023-06-10T02:12:58;101247.91;;;14.36;97.24
41596;BME280;27283;52.504;13.358;2023-06-10T02:15:30;101248.91;;;14.35;97.64
41596;BME280;27283;52.504;13.358;2023-06-10T02:18:03;101247.56;;;14.31;97.96
41596;BME280;27283;52.504;13.358;2023-06-10T02:20:35;101261.06;;;14.39;96.82
41596;BME280;27283;52.504;13.358;2023-06-10T02:23:11;101262.41;;;14.43;96.54
41596;BME280;27283;52.504;13.358;2023-06-10T02:25:43;101260.47;;;14.52;96.47
41596;BME280;27283;52.504;13.358;2023-06-10T02:28:16;101259.34;;;14.46;96.40
41596;BME280;27283;52.504;13.358;2023-06-10T02:30:49;101263.16;;;14.29;97.48
41596;BME280;27283;52.504;13.358;2023-06-10T02:33:21;101256.56;;;14.31;97.80
41596;BME280;27283;52.504;13.358;2023-06-10T02:35:53;101257.63;;;14.22;98.15
41596;BME280;27283;52.504;13.358;2023-06-10T02:38:28;101259.56;;;14.05;99.45
41596;BME280;27283;52.504;13.358;2023-06-10T02:41:00;101262.25;;;14.05;99.74
41596;BME280;27283;52.504;13.358;2023-06-10T02:43:33;101257.00;;;14.12;99.61
41596;BME280;27283;52.504;13.358;2023-06-10T02:46:05;101258.63;;;14.21;98.96
41596;BME280;27283;52.504;13.358;2023-06-10T02:48:41;101258.53;;;14.38;97.52
41596;BME280;27283;52.504;13.358;2023-06-10T02:51:14;101263.59;;;14.41;96.79
41596;BME280;27283;52.504;13.358;2023-06-10T02:53:49;101256.28;;;14.18;98.82
41596;BME280;27283;52.504;13.358;2023-06-10T02:56:34;101262.53;;;14.18;98.88
41596;BME280;27283;52.504;13.358;2023-06-10T02:59:10;101265.06;;;14.20;98.85
41596;BME280;27283;52.504;13.358;2023-06-10T03:01:42;101261.44;;;14.36;98.08
41596;BME280;27283;52.504;13.358;2023-06-10T03:04:15;101263.44;;;14.34;97.48
41596;BME280;27283;52.504;13.358;2023-06-10T03:06:47;101269.94;;;14.25;97.81
41596;BME280;27283;52.504;13.358;2023-06-10T03:09:22;101258.09;;;14.26;98.30
41596;BME280;27283;52.504;13.358;2023-06-10T03:11:54;101262.97;;;14.30;98.13
41596;BME280;27283;52.504;13.358;2023-06-10T03:14:27;101271.22;;;14.37;97.54
41596;BME280;27283;52.504;13.358;2023-06-10T03:16:59;101267.38;;;14.31;97.67
41596;BME280;27283;52.504;13.358;2023-06-10T03:19:32;101262.97;;;14.30;98.03
41596;BME280;27283;52.504;13.358;2023-06-10T03:22:11;101269.72;;;14.34;97.77
41596;BME280;27283;52.504;13.358;2023-06-10T03:24:46;101262.91;;;14.39;96.89
41596;BME280;27283;52.504;13.358;2023-06-10T03:27:19;101257.88;;;14.35;96.96
41596;BME280;27283;52.504;13.358;2023-06-10T03:29:52;101269.91;;;14.33;97.24
41596;BME280;27283;52.504;13.358;2023-06-10T03:32:24;101275.03;;;14.20;98.68
41596;BME280;27283;52.504;13.358;2023-06-10T03:34:56;101270.28;;;14.22;98.99
41596;BME280;27283;52.504;13.358;2023-06-10T03:37:28;101276.69;;;14.29;98.30
41596;BME280;27283;52.504;13.358;2023-06-10T03:40:05;101278.56;;;14.20;99.14
41596;BME280;27283;52.504;13.358;2023-06-10T03:42:37;101275.34;;;14.25;98.47
41596;BME280;27283;52.504;13.358;2023-06-10T03:45:10;101284.16;;;14.18;98.86
41596;BME280;27283;52.504;13.358;2023-06-10T03:47:42;101279.94;;;14.16;99.37
41596;BME280;27283;52.504;13.358;2023-06-10T03:50:17;101276.50;;;14.30;98.67
41596;BME280;27283;52.504;13.358;2023-06-10T03:52:49;101270.38;;;14.36;98.05
41596;BME280;27283;52.504;13.358;2023-06-10T03:55:24;101282.63;;;14.56;96.86
41596;BME280;27283;52.504;13.358;2023-06-10T03:57:56;101280.88;;;14.63;96.52
41596;BME280;27283;52.504;13.358;2023-06-10T04:00:29;101283.78;;;14.61;95.81
41596;BME280;27283;52.504;13.358;2023-06-10T04:03:10;101293.47;;;14.79;94.74
41596;BME280;27283;52.504;13.358;2023-06-10T04:05:44;101288.66;;;14.66;95.42
41596;BME280;27283;52.504;13.358;2023-06-10T04:08:16;101286.63;;;14.68;95.13
41596;BME280;27283;52.504;13.358;2023-06-10T04:10:52;101291.41;;;14.81;94.25
41596;BME280;27283;52.504;13.358;2023-06-10T04:13:25;101292.56;;;14.86;94.06
41596;BME280;27283;52.504;13.358;2023-06-10T04:15:57;101297.38;;;14.76;94.37
41596;BME280;27283;52.504;13.358;2023-06-10T04:18:29;101301.78;;;14.77;94.37
41596;BME280;27283;52.504;13.358;2023-06-10T04:21:02;101292.03;;;14.68;94.78
41596;BME280;27283;52.504;13.358;2023-06-10T04:23:35;101288.78;;;14.73;94.82
41596;BME280;27283;52.504;13.358;2023-06-10T04:26:10;101288.41;;;14.99;93.31
41596;BME280;27283;52.504;13.358;2023-06-10T04:28:43;101288.22;;;15.00;93.02
41596;BME280;27283;52.504;13.358;2023-06-10T04:31:16;101279.28;;;15.00;93.00
41596;BME280;27283;52.504;13.358;2023-06-10T04:33:48;101289.09;;;15.01;93.39
41596;BME280;27283;52.504;13.358;2023-06-10T04:36:20;101287.03;;;15.03;92.53
41596;BME280;27283;52.504;13.358;2023-06-10T04:38:52;101289.31;;;14.91;93.42
41596;BME280;27283;52.504;13.358;2023-06-10T04:41:27;101304.47;;;15.00;93.07
41596;BME280;27283;52.504;13.358;2023-06-10T04:43:59;101299.91;;;15.01;93.11
41596;BME280;27283;52.504;13.358;2023-06-10T04:46:32;101308.38;;;15.21;92.37
41596;BME280;27283;52.504;13.358;2023-06-10T04:49:04;101312.63;;;15.38;90.36
41596;BME280;27283;52.504;13.358;2023-06-10T04:51:37;101308.44;;;15.51;89.37
41596;BME280;27283;52.504;13.358;2023-06-10T04:54:09;101305.72;;;15.51;89.02
41596;BME280;27283;52.504;13.358;2023-06-10T04:56:44;101314.63;;;15.59;88.73
41596;BME280;27283;52.504;13.358;2023-06-10T04:59:16;101318.72;;;15.55;89.12
41596;BME280;27283;52.504;13.358;2023-06-10T05:01:49;101319.84;;;15.61;88.41
41596;BME280;27283;52.504;13.358;2023-06-10T05:04:21;101322.00;;;15.51;89.39
41596;BME280;27283;52.504;13.358;2023-06-10T05:06:53;101317.69;;;15.56;89.42
41596;BME280;27283;52.504;13.358;2023-06-10T05:09:25;101321.19;;;15.80;87.46
41596;BME280;27283;52.504;13.358;2023-06-10T05:12:00;101327.97;;;15.76;87.50
41596;BME280;27283;52.504;13.358;2023-06-10T05:14:32;101322.97;;;15.88;87.06
41596;BME280;27283;52.504;13.358;2023-06-10T05:17:06;101323.44;;;16.06;86.27
41596;BME280;27283;52.504;13.358;2023-06-10T05:19:37;101333.81;;;16.18;84.84
41596;BME280;27283;52.504;13.358;2023-06-10T05:22:10;101329.31;;;16.25;84.90
41596;BME280;27283;52.504;13.358;2023-06-10T05:24:45;101333.69;;;16.41;83.77
41596;BME280;27283;52.504;13.358;2023-06-10T05:27:20;101328.06;;;16.42;83.29
41596;BME280;27283;52.504;13.358;2023-06-10T05:29:53;101330.78;;;16.42;83.84
41596;BME280;27283;52.504;13.358;2023-06-10T05:32:25;101342.53;;;16.64;81.95
41596;BME280;27283;52.504;13.358;2023-06-10T05:34:57;101335.91;;;17.32;80.48
41596;BME280;27283;52.504;13.358;2023-06-10T05:37:30;101329.53;;;18.10;75.78
41596;BME280;27283;52.504;13.358;2023-06-10T05:40:03;101334.81;;;18.66;72.41
41596;BME280;27283;52.504;13.358;2023-06-10T05:42:39;101329.88;;;19.17;70.24
41596;BME280;27283;52.504;13.358;2023-06-10T05:45:11;101336.56;;;19.07;70.28
41596;BME280;27283;52.504;13.358;2023-06-10T05:47:43;101331.13;;;19.14;69.31
41596;BME280;27283;52.504;13.358;2023-06-10T05:50:16;101327.34;;;18.95;69.88
41596;BME280;27283;52.504;13.358;2023-06-10T05:52:48;101333.34;;;18.84;70.20
41596;BME280;27283;52.504;13.358;2023-06-10T05:55:22;101330.69;;;18.97;70.18
41596;BME280;27283;52.504;13.358;2023-06-10T05:58:03;101334.50;;;19.29;69.37
41596;BME280;27283;52.504;13.358;2023-06-10T06:00:35;101336.56;;;19.27;69.61
41596;BME280;27283;52.504;13.358;2023-06-10T06:03:08;101340.78;;;19.10;69.25
41596;BME280;27283;52.504;13.358;2023-06-10T06:05:40;101336.00;;;18.50;71.61
41596;BME280;27283;52.504;13.358;2023-06-10T06:08:12;101336.03;;;18.70;72.53
41596;BME280;27283;52.504;13.358;2023-06-10T06:10:47;101336.13;;;18.35;73.09
41596;BME280;27283;52.504;13.358;2023-06-10T06:13:22;101345.81;;;18.45;74.17
41596;BME280;27283;52.504;13.358;2023-06-10T06:15:54;101338.19;;;18.27;73.87
41596;BME280;27283;52.504;13.358;2023-06-10T06:18:27;101338.41;;;18.87;72.90
41596;BME280;27283;52.504;13.358;2023-06-10T06:20:59;101347.91;;;19.58;69.51
41596;BME280;27283;52.504;13.358;2023-06-10T06:23:31;101347.28;;;19.49;70.80
41596;BME280;27283;52.504;13.358;2023-06-10T06:26:04;101350.56;;;20.05;67.51
41596;BME280;27283;52.504;13.358;2023-06-10T06:28:39;101356.28;;;20.55;66.48
41596;BME280;27283;52.504;13.358;2023-06-10T06:31:11;101360.72;;;20.49;64.93
41596;BME280;27283;52.504;13.358;2023-06-10T06:33:44;101358.75;;;20.70;63.86
41596;BME280;27283;52.504;13.358;2023-06-10T06:36:16;101352.41;;;21.08;62.31
41596;BME280;27283;52.504;13.358;2023-06-10T06:38:49;101355.50;;;21.69;60.30
41596;BME280;27283;52.504;13.358;2023-06-10T06:41:21;101359.84;;;21.58;60.42
41596;BME280;27283;52.504;13.358;2023-06-10T06:43:57;101349.94;;;21.57;59.74
41596;BME280;27283;52.504;13.358;2023-06-10T06:46:29;101360.72;;;21.77;59.36
41596;BME280;27283;52.504;13.358;2023-06-10T06:49:02;101367.91;;;21.71;60.19
41596;BME280;27283;52.504;13.358;2023-06-10T06:51:34;101362.19;;;22.35;57.63
41596;BME280;27283;52.504;13.358;2023-06-10T06:54:06;101367.34;;;22.25;57.54
41596;BME280;27283;52.504;13.358;2023-06-10T06:56:39;101368.91;;;22.39;56.89
41596;BME280;27283;52.504;13.358;2023-06-10T06:59:14;101373.88;;;22.05;57.74
41596;BME280;27283;52.504;13.358;2023-06-10T07:01:47;101367.44;;;22.00;57.90
41596;BME280;27283;52.504;13.358;2023-06-10T07:04:20;101364.59;;;21.88;58.40
41596;BME280;27283;52.504;13.358;2023-06-10T07:06:52;101374.06;;;21.67;59.12
41596;BME280;27283;52.504;13.358;2023-06-10T07:09:24;101370.41;;;21.48;60.83
41596;BME280;27283;52.504;13.358;2023-06-10T07:11:57;101378.31;;;22.06;58.20
41596;BME280;27283;52.504;13.358;2023-06-10T07:14:32;101380.38;;;22.48;57.77
41596;BME280;27283;52.504;13.358;2023-06-10T07:17:04;101377.97;;;23.43;54.81
41596;BME280;27283;52.504;13.358;2023-06-10T07:19:37;101378.97;;;23.84;53.20
41596;BME280;27283;52.504;13.358;2023-06-10T07:22:08;101374.28;;;24.20;51.71
41596;BME280;27283;52.504;13.358;2023-06-10T07:24:40;101384.38;;;25.12;49.15
41596;BME280;27283;52.504;13.358;2023-06-10T07:27:12;101373.28;;;24.38;51.30
41596;BME280;27283;52.504;13.358;2023-06-10T07:29:47;101383.69;;;25.05;49.82
41596;BME280;27283;52.504;13.358;2023-06-10T07:32:19;101384.22;;;25.87;47.92
41596;BME280;27283;52.504;13.358;2023-06-10T07:34:52;101389.22;;;26.74;44.36
41596;BME280;27283;52.504;13.358;2023-06-10T07:37:24;101398.13;;;26.81;43.62
41596;BME280;27283;52.504;13.358;2023-06-10T07:39:56;101397.41;;;26.91;43.70
41596;BME280;27283;52.504;13.358;2023-06-10T07:42:28;101393.13;;;26.56;45.41
41596;BME280;27283;52.504;13.358;2023-06-10T07:45:03;101391.88;;;27.45;42.79
41596;BME280;27283;52.504;13.358;2023-06-10T07:47:36;101392.72;;;26.91;44.25
41596;BME280;27283;52.504;13.358;2023-06-10T07:50:09;101395.69;;;26.62;44.61
41596;BME280;27283;52.504;13.358;2023-06-10T07:52:41;101399.91;;;26.04;46.08
41596;BME280;27283;52.504;13.358;2023-06-10T07:55:13;101391.28;;;25.44;47.87
41596;BME280;27283;52.504;13.358;2023-06-10T07:57:44;101391.91;;;25.85;45.94
41596;BME280;27283;52.504;13.358;2023-06-10T08:00:20;101394.34;;;24.73;49.35
41596;BME280;27283;52.504;13.358;2023-06-10T08:02:52;101389.41;;;25.33;47.42
41596;BME280;27283;52.504;13.358;2023-06-10T08:05:25;101394.53;;;25.12;48.11
41596;BME280;27283;52.504;13.358;2023-06-10T08:07:57;101387.81;;;24.50;50.25
41596;BME280;27283;52.504;13.358;2023-06-10T08:10:31;101397.34;;;24.31;50.70
41596;BME280;27283;52.504;13.358;2023-06-10T08:13:04;101395.81;;;23.99;51.84
41596;BME280;27283;52.504;13.358;2023-06-10T08:15:39;101395.19;;;23.97;52.46
41596;BME280;27283;52.504;13.358;2023-06-10T08:18:11;101398.91;;;24.03;52.45
41596;BME280;27283;52.504;13.358;2023-06-10T08:20:44;101402.53;;;25.13;50.77
41596;BME280;27283;52.504;13.358;2023-06-10T08:23:15;101399.63;;;26.44;45.09
41596;BME280;27283;52.504;13.358;2023-06-10T08:25:48;101398.38;;;27.34;43.18
41596;BME280;27283;52.504;13.358;2023-06-10T08:28:20;101402.94;;;26.91;44.52
41596;BME280;27283;52.504;13.358;2023-06-10T08:30:55;101406.41;;;26.37;46.51
41596;BME280;27283;52.504;13.358;2023-06-10T08:33:27;101408.94;;;27.74;42.07
41596;BME280;27283;52.504;13.358;2023-06-10T08:35:59;101411.84;;;28.43;40.17
41596;BME280;27283;52.504;13.358;2023-06-10T08:38:30;101409.19;;;28.69;40.52
41596;BME280;27283;52.504;13.358;2023-06-10T08:41:05;101411.69;;;27.74;41.68
41596;BME280;27283;52.504;13.358;2023-06-10T08:43:41;101409.31;;;26.96;44.35
41596;BME280;27283;52.504;13.358;2023-06-10T08:46:18;101417.28;;;27.85;41.87
41596;BME280;27283;52.504;13.358;2023-06-10T08:48:53;101417.97;;;27.32;43.35
41596;BME280;27283;52.504;13.358;2023-06-10T08:51:28;101418.19;;;26.71;44.54
41596;BME280;27283;52.504;13.358;2023-06-10T08:54:03;101418.88;;;26.39;46.41
41596;BME280;27283;52.504;13.358;2023-06-10T08:56:39;101417.88;;;26.50;46.28
41596;BME280;27283;52.504;13.358;2023-06-10T08:59:12;101422.06;;;26.75;45.06
41596;BME280;27283;52.504;13.358;2023-06-10T09:01:50;101412.59;;;27.48;42.52
41596;BME280;27283;52.504;13.358;2023-06-10T09:04:24;101416.75;;;27.88;41.86
41596;BME280;27283;52.504;13.358;2023-06-10T09:06:57;101406.69;;;28.04;41.69
41596;BME280;27283;52.504;13.358;2023-06-10T09:09:29;101410.53;;;27.05;44.93
41596;BME280;27283;52.504;13.358;2023-06-10T09:12:02;101405.63;;;26.85;45.29
41596;BME280;27283;52.504;13.358;2023-06-10T09:14:34;101410.97;;;26.92;44.37
41596;BME280;27283;52.504;13.358;2023-06-10T09:17:09;101405.78;;;26.51;46.70
41596;BME280;27283;52.504;13.358;2023-06-10T09:19:42;101410.84;;;27.09;44.29
41596;BME280;27283;52.504;13.358;2023-06-10T09:22:16;101410.00;;;25.81;46.96
41596;BME280;27283;52.504;13.358;2023-06-10T09:24:48;101413.22;;;26.29;46.56
41596;BME280;27283;52.504;13.358;2023-06-10T09:27:21;101415.06;;;26.23;48.07
41596;BME280;27283;52.504;13.358;2023-06-10T09:29:54;101414.84;;;25.91;47.64
41596;BME280;27283;52.504;13.358;2023-06-10T09:32:48;101409.91;;;26.10;47.25
41596;BME280;27283;52.504;13.358;2023-06-10T09:35:29;101408.50;;;25.90;47.45
41596;BME280;27283;52.504;13.358;2023-06-10T09:38:02;101421.13;;;26.25;46.35
41596;BME280;27283;52.504;13.358;2023-06-10T09:40:48;101419.22;;;25.24;49.16
41596;BME280;27283;52.504;13.358;2023-06-10T09:43:22;101423.69;;;25.59;47.93
41596;BME280;27283;52.504;13.358;2023-06-10T09:45:56;101424.19;;;24.93;49.48
41596;BME280;27283;52.504;13.358;2023-06-10T09:48:34;101433.38;;;24.99;50.27
41596;BME280;27283;52.504;13.358;2023-06-10T09:51:09;101433.03;;;25.12;49.14
41596;BME280;27283;52.504;13.358;2023-06-10T09:53:42;101438.84;;;25.27;48.61
41596;BME280;27283;52.504;13.358;2023-06-10T09:56:14;101429.94;;;24.27;51.09
41596;BME280;27283;52.504;13.358;2023-06-10T09:58:47;101425.84;;;23.82;52.79
41596;BME280;27283;52.504;13.358;2023-06-10T10:01:19;101428.66;;;23.94;51.83
41596;BME280;27283;52.504;13.358;2023-06-10T10:03:54;101426.72;;;24.30;50.90
41596;BME280;27283;52.504;13.358;2023-06-10T10:06:27;101424.47;;;24.03;51.82
41596;BME280;27283;52.504;13.358;2023-06-10T10:09:01;101431.72;;;24.21;51.74
41596;BME280;27283;52.504;13.358;2023-06-10T10:11:34;101425.63;;;24.31;50.11
41596;BME280;27283;52.504;13.358;2023-06-10T10:14:08;101433.75;;;24.38;50.33
41596;BME280;27283;52.504;13.358;2023-06-10T10:16:41;101430.56;;;24.05;52.11
41596;BME280;27283;52.504;13.358;2023-06-10T10:19:21;101422.81;;;24.02;51.42
41596;BME280;27283;52.504;13.358;2023-06-10T10:22:08;101421.34;;;24.23;50.46
41596;BME280;27283;52.504;13.358;2023-06-10T10:24:46;101421.84;;;24.20;50.19
41596;BME280;27283;52.504;13.358;2023-06-10T10:27:26;101415.22;;;24.33;50.21
41596;BME280;27283;52.504;13.358;2023-06-10T10:29:59;101418.44;;;24.42;48.36
41596;BME280;27283;52.504;13.358;2023-06-10T10:32:38;101423.84;;;24.37;48.59
41596;BME280;27283;52.504;13.358;2023-06-10T10:35:17;101425.41;;;24.33;48.92
41596;BME280;27283;52.504;13.358;2023-06-10T10:37:53;101419.41;;;24.48;48.28
41596;BME280;27283;52.504;13.358;2023-06-10T10:40:27;101431.34;;;24.53;47.41
41596;BME280;27283;52.504;13.358;2023-06-10T10:43:02;101421.09;;;24.37;45.97
41596;BME280;27283;52.504;13.358;2023-06-10T10:45:35;101427.75;;;24.41;44.08
41596;BME280;27283;52.504;13.358;2023-06-10T10:48:08;101413.78;;;24.42;42.87
41596;BME280;27283;52.504;13.358;2023-06-10T10:50:56;101417.41;;;24.31;43.43
41596;BME280;27283;52.504;13.358;2023-06-10T10:53:29;101407.47;;;24.30;45.79
41596;BME280;27283;52.504;13.358;2023-06-10T10:56:05;101408.69;;;24.11;46.26
41596;BME280;27283;52.504;13.358;2023-06-10T10:58:41;101407.38;;;23.66;48.54
41596;BME280;27283;52.504;13.358;2023-06-10T11:01:14;101396.88;;;23.98;49.05
41596;BME280;27283;52.504;13.358;2023-06-10T11:03:46;101390.38;;;24.40;50.62
41596;BME280;27283;52.504;13.358;2023-06-10T11:06:21;101391.63;;;25.19;47.44
41596;BME280;27283;52.504;13.358;2023-06-10T11:08:54;101384.84;;;26.11;41.77
41596;BME280;27283;52.504;13.358;2023-06-10T11:11:33;101371.59;;;26.30;44.12
41596;BME280;27283;52.504;13.358;2023-06-10T11:14:07;101373.16;;;26.21;44.18
41596;BME280;27283;52.504;13.358;2023-06-10T11:16:42;101365.53;;;25.72;43.39
41596;BME280;27283;52.504;13.358;2023-06-10T11:19:32;101369.75;;;25.58;46.91
41596;BME280;27283;52.504;13.358;2023-06-10T11:22:08;101370.69;;;25.86;43.03
41596;BME280;27283;52.504;13.358;2023-06-10T11:24:41;101374.00;;;25.88;44.85
41596;BME280;27283;52.504;13.358;2023-06-10T11:27:18;101369.94;;;25.90;44.00
41596;BME280;27283;52.504;13.358;2023-06-10T11:32:44;101369.66;;;26.53;41.77
41596;BME280;27283;52.504;13.358;2023-06-10T11:35:16;101369.66;;;26.75;41.06
41596;BME280;27283;52.504;13.358;2023-06-10T11:37:51;101363.56;;;26.73;40.48
41596;BME280;27283;52.504;13.358;2023-06-10T11:40:23;101359.09;;;26.67;41.14
41596;BME280;27283;52.504;13.358;2023-06-10T11:42:56;101366.19;;;26.63;40.82
41596;BME280;27283;52.504;13.358;2023-06-10T11:45:32;101362.47;;;26.74;39.16
41596;BME280;27283;52.504;13.358;2023-06-10T11:48:05;101365.16;;;27.56;36.02
41596;BME280;27283;52.504;13.358;2023-06-10T11:50:37;101362.03;;;27.90;35.98
41596;BME280;27283;52.504;13.358;2023-06-10T11:53:13;101374.59;;;28.08;35.68
41596;BME280;27283;52.504;13.358;2023-06-10T11:55:47;101370.31;;;28.33;35.93
41596;BME280;27283;52.504;13.358;2023-06-10T11:58:21;101368.16;;;28.45;37.21
41596;BME280;27283;52.504;13.358;2023-06-10T12:00:54;101373.25;;;28.16;38.84
41596;BME280;27283;52.504;13.358;2023-06-10T12:03:36;101373.00;;;27.69;41.23
41596;BME280;27283;52.504;13.358;2023-06-10T12:06:08;101363.03;;;27.68;41.88
41596;BME280;27283;52.504;13.358;2023-06-10T12:08:44;101363.00;;;27.31;42.55
41596;BME280;27283;52.504;13.358;2023-06-10T12:11:16;101359.28;;;27.47;42.92
41596;BME280;27283;52.504;13.358;2023-06-10T12:13:49;101365.84;;;27.36;43.29
41596;BME280;27283;52.504;13.358;2023-06-10T12:16:22;101365.88;;;27.41;43.99
41596;BME280;27283;52.504;13.358;2023-06-10T12:19:01;101367.22;;;27.38;44.47
41596;BME280;27283;52.504;13.358;2023-06-10T12:21:37;101367.81;;;27.40;42.49
41596;BME280;27283;52.504;13.358;2023-06-10T12:24:12;101364.88;;;27.25;41.78
41596;BME280;27283;52.504;13.358;2023-06-10T12:26:45;101368.78;;;27.29;40.02
41596;BME280;27283;52.504;13.358;2023-06-10T12:29:20;101373.41;;;27.23;39.24
41596;BME280;27283;52.504;13.358;2023-06-10T12:31:57;101367.50;;;27.10;39.32
41596;BME280;27283;52.504;13.358;2023-06-10T12:34:34;101365.53;;;27.32;37.89
41596;BME280;27283;52.504;13.358;2023-06-10T12:37:11;101355.97;;;27.45;37.40
41596;BME280;27283;52.504;13.358;2023-06-10T12:39:53;101353.03;;;27.57;37.48
41596;BME280;27283;52.504;13.358;2023-06-10T12:42:25;101343.66;;;27.63;37.60
41596;BME280;27283;52.504;13.358;2023-06-10T12:44:59;101348.88;;;27.59;37.63
41596;BME280;27283;52.504;13.358;2023-06-10T12:47:33;101334.50;;;27.52;37.66
41596;BME280;27283;52.504;13.358;2023-06-10T12:50:09;101335.91;;;27.60;38.45
41596;BME280;27283;52.504;13.358;2023-06-10T12:52:41;101328.78;;;27.69;38.24
41596;BME280;27283;52.504;13.358;2023-06-10T12:55:16;101330.06;;;27.56;38.59
41596;BME280;27283;52.504;13.358;2023-06-10T12:57:49;101326.28;;;27.68;38.63
41596;BME280;27283;52.504;13.358;2023-06-10T13:00:21;101320.22;;;27.71;39.22
41596;BME280;27283;52.504;13.358;2023-06-10T13:02:54;101323.06;;;27.86;39.67
41596;BME280;27283;52.504;13.358;2023-06-10T13:05:26;101313.22;;;27.58;40.63
41596;BME280;27283;52.504;13.358;2023-06-10T13:07:59;101310.00;;;27.71;40.78
41596;BME280;27283;52.504;13.358;2023-06-10T13:10:34;101318.34;;;27.82;41.28
41596;BME280;27283;52.504;13.358;2023-06-10T13:13:06;101306.63;;;27.64;41.04
41596;BME280;27283;52.504;13.358;2023-06-10T13:15:39;101314.38;;;27.62;40.51
41596;BME280;27283;52.504;13.358;2023-06-10T13:18:11;101306.91;;;27.63;41.28